Time;durP1;ratioP1;P1;durP2;ratioP2;P2;SDS_P1;SDS_P2;PMS_P1;PMS_P2;Temp;Humidity;BMP_temperature;BMP_pressure;BME280_temperature;BME280_humidity;BME280_pressure;Samples;Min_cycle;Max_cycle;Signal;HPM_P1;HPM_P2
2022/10/07 00:02:06;;;;;;;0.90;0.83;;;;;;;;;;5039508;28;20286;-52
2022/10/07 00:04:33;;;;;;;0.90;0.80;;;;;;;;;;5051371;28;20227;-49
2022/10/07 00:06:59;;;;;;;1.80;0.77;;;;;;;;;;5042049;28;20294;-50
2022/10/07 00:09:25;;;;;;;2.43;0.70;;;;;;;;;;5050205;28;20227;-49
2022/10/07 00:11:52;;;;;;;1.33;0.80;;;;;;;;;;5043156;28;20282;-53
2022/10/07 00:14:18;;;;;;;1.27;0.80;;;;;;;;;;5046109;28;20211;-50
2022/10/07 00:16:44;;;;;;;1.17;0.70;;;;;;;;;;5043906;28;20268;-49
2022/10/07 00:19:12;;;;;;;1.77;0.90;;;;;;;;;;5049791;28;20191;-52
2022/10/07 00:21:39;;;;;;;1.07;0.73;;;;;;;;;;5045331;28;20297;-53
2022/10/07 00:24:06;;;;;;;1.00;0.80;;;;;;;;;;5046589;28;20372;-49
2022/10/07 00:26:34;;;;;;;1.53;1.00;;;;;;;;;;5049743;28;20302;-54
2022/10/07 00:29:01;;;;;;;1.37;0.90;;;;;;;;;;5049076;28;20282;-50
2022/10/07 00:31:29;;;;;;;1.07;0.80;;;;;;;;;;5045481;28;20586;-49
2022/10/07 00:33:56;;;;;;;1.30;0.70;;;;;;;;;;5045556;28;20317;-51
2022/10/07 00:36:25;;;;;;;2.70;0.90;;;;;;;;;;5048353;28;20289;-53
2022/10/07 00:38:56;;;;;;;0.90;0.80;;;;;;;;;;5053908;28;20557;-53
2022/10/07 00:41:26;;;;;;;1.57;0.90;;;;;;;;;;5038161;28;20589;-55
2022/10/07 00:43:52;;;;;;;1.07;0.83;;;;;;;;;;5055323;28;20246;-49
2022/10/07 00:46:28;;;;;;;1.07;0.83;;;;;;;;;;5042141;28;20663;-53
2022/10/07 00:48:56;;;;;;;1.03;0.80;;;;;;;;;;5044594;28;20234;-52
2022/10/07 00:51:23;;;;;;;0.77;0.70;;;;;;;;;;5045858;28;20282;-50
2022/10/07 00:53:51;;;;;;;1.30;0.87;;;;;;;;;;5038666;28;20215;-52
2022/10/07 00:56:18;;;;;;;1.97;0.90;;;;;;;;;;5045065;28;20195;-50
2022/10/07 00:58:46;;;;;;;1.47;0.97;;;;;;;;;;5051985;28;20225;-52
2022/10/07 01:01:12;;;;;;;1.20;0.80;;;;;;;;;;5046031;28;20250;-49
2022/10/07 01:03:38;;;;;;;1.33;0.83;;;;;;;;;;5040000;28;20219;-49
2022/10/07 01:06:05;;;;;;;1.17;0.80;;;;;;;;;;5045354;28;20198;-50
2022/10/07 01:08:32;;;;;;;1.00;0.90;;;;;;;;;;5044301;28;20298;-52
2022/10/07 01:11:14;;;;;;;2.00;1.00;;;;;;;;;;5037148;28;20222;-49
2022/10/07 01:13:46;;;;;;;1.50;0.90;;;;;;;;;;5038378;28;20257;-53
2022/10/07 01:16:38;;;;;;;1.97;0.90;;;;;;;;;;5037889;28;20299;-49
2022/10/07 01:19:32;;;;;;;1.30;0.83;;;;;;;;;;5048024;28;20229;-49
2022/10/07 01:22:18;;;;;;;1.27;0.70;;;;;;;;;;5041280;28;20246;-54
2022/10/07 01:25:02;;;;;;;1.37;1.00;;;;;;;;;;5047851;28;20286;-49
2022/10/07 01:27:29;;;;;;;2.47;0.90;;;;;;;;;;5046358;28;20230;-49
2022/10/07 01:30:00;;;;;;;1.10;0.80;;;;;;;;;;5044508;28;20207;-51
2022/10/07 01:32:33;;;;;;;1.13;0.80;;;;;;;;;;5047842;28;20195;-50
2022/10/07 01:35:00;;;;;;;1.00;0.80;;;;;;;;;;5045908;28;20229;-49
2022/10/07 01:37:34;;;;;;;1.00;0.87;;;;;;;;;;5047016;28;20203;-49
2022/10/07 01:40:13;;;;;;;1.23;0.90;;;;;;;;;;5041595;28;20218;-49
2022/10/07 01:42:40;;;;;;;1.30;0.87;;;;;;;;;;5041995;28;20287;-50
2022/10/07 01:45:09;;;;;;;1.00;0.90;;;;;;;;;;5045640;28;20675;-54
2022/10/07 01:47:36;;;;;;;1.80;0.90;;;;;;;;;;5037388;28;20509;-51
2022/10/07 01:50:10;;;;;;;2.47;0.90;;;;;;;;;;5048363;28;20229;-51
2022/10/07 01:53:03;;;;;;;0.80;0.80;;;;;;;;;;5042631;28;20254;-50
2022/10/07 01:55:41;;;;;;;0.83;0.83;;;;;;;;;;5044078;28;20294;-50
2022/10/07 01:58:23;;;;;;;0.97;0.77;;;;;;;;;;5045180;28;20226;-50
2022/10/07 02:01:05;;;;;;;0.83;0.60;;;;;;;;;;5048221;28;20776;-50
2022/10/07 02:03:55;;;;;;;0.87;0.77;;;;;;;;;;5048380;28;20226;-52
2022/10/07 02:06:47;;;;;;;1.57;1.00;;;;;;;;;;5046038;28;20191;-50
2022/10/07 02:09:33;;;;;;;1.00;0.80;;;;;;;;;;5039961;28;20701;-53
2022/10/07 02:12:21;;;;;;;1.23;0.90;;;;;;;;;;5038667;28;20215;-53
2022/10/07 02:14:53;;;;;;;1.03;0.83;;;;;;;;;;5044832;28;20256;-55
2022/10/07 02:17:20;;;;;;;1.30;0.90;;;;;;;;;;5044596;28;20234;-55
2022/10/07 02:19:53;;;;;;;1.10;0.87;;;;;;;;;;5045601;28;20226;-55
2022/10/07 02:22:21;;;;;;;0.80;0.70;;;;;;;;;;5040634;28;20250;-55
2022/10/07 02:24:51;;;;;;;0.60;0.60;;;;;;;;;;5042155;28;20821;-55
2022/10/07 02:27:22;;;;;;;1.10;0.80;;;;;;;;;;5043699;28;20651;-55
2022/10/07 02:29:51;;;;;;;1.33;1.00;;;;;;;;;;5041133;28;20735;-53
2022/10/07 02:32:20;;;;;;;1.30;0.80;;;;;;;;;;5047884;28;20222;-53
2022/10/07 02:34:51;;;;;;;1.63;1.07;;;;;;;;;;5052215;28;20340;-49
2022/10/07 02:37:23;;;;;;;1.00;0.70;;;;;;;;;;5044100;28;20199;-53
2022/10/07 02:39:50;;;;;;;1.10;0.93;;;;;;;;;;5048791;28;20229;-52
2022/10/07 02:42:25;;;;;;;0.90;0.90;;;;;;;;;;5046207;28;20314;-51
2022/10/07 02:45:01;;;;;;;1.60;0.90;;;;;;;;;;5044503;28;20230;-50
2022/10/07 02:47:34;;;;;;;1.33;1.00;;;;;;;;;;5043850;28;20237;-49
2022/10/07 02:50:03;;;;;;;0.87;0.70;;;;;;;;;;5041196;28;20620;-49
2022/10/07 02:52:31;;;;;;;1.00;0.70;;;;;;;;;;5047419;28;20251;-53
2022/10/07 02:55:02;;;;;;;1.20;0.77;;;;;;;;;;5043776;28;20280;-51
2022/10/07 02:57:34;;;;;;;0.70;0.70;;;;;;;;;;5043913;28;20693;-52
2022/10/07 03:00:00;;;;;;;1.00;0.90;;;;;;;;;;5041438;28;20191;-49
2022/10/07 03:02:35;;;;;;;1.23;0.90;;;;;;;;;;5042465;28;20246;-50
2022/10/07 03:05:01;;;;;;;1.23;0.90;;;;;;;;;;5051898;28;20614;-53
2022/10/07 03:07:28;;;;;;;1.10;0.90;;;;;;;;;;5034420;28;20231;-49
2022/10/07 03:09:54;;;;;;;1.13;0.80;;;;;;;;;;5052149;28;20237;-50
2022/10/07 03:12:21;;;;;;;1.23;0.80;;;;;;;;;;5046191;28;20285;-50
2022/10/07 03:14:48;;;;;;;0.87;0.80;;;;;;;;;;5048870;28;20226;-53
2022/10/07 03:17:16;;;;;;;0.73;0.70;;;;;;;;;;5047625;28;20282;-49
2022/10/07 03:19:42;;;;;;;0.97;0.70;;;;;;;;;;5048189;28;20198;-50
2022/10/07 03:22:09;;;;;;;1.10;0.77;;;;;;;;;;5043423;28;20305;-50
2022/10/07 03:24:35;;;;;;;1.40;0.80;;;;;;;;;;5056874;28;21031;-55
2022/10/07 03:27:04;;;;;;;1.10;0.87;;;;;;;;;;5042225;28;20900;-52
2022/10/07 03:29:31;;;;;;;0.90;0.70;;;;;;;;;;5051885;28;20309;-49
2022/10/07 03:31:58;;;;;;;0.90;0.73;;;;;;;;;;5048598;28;20206;-52
2022/10/07 03:34:26;;;;;;;0.77;0.70;;;;;;;;;;5054033;28;20253;-53
2022/10/07 03:36:53;;;;;;;0.70;0.70;;;;;;;;;;5044753;28;20285;-49
2022/10/07 03:39:19;;;;;;;0.90;0.70;;;;;;;;;;5055238;28;20678;-49
2022/10/07 03:41:47;;;;;;;0.97;0.80;;;;;;;;;;5059177;28;20317;-50
2022/10/07 03:44:14;;;;;;;1.37;0.70;;;;;;;;;;5041782;28;20246;-50
2022/10/07 03:46:40;;;;;;;1.10;0.90;;;;;;;;;;5045530;28;20246;-52
2022/10/07 03:49:06;;;;;;;1.73;0.70;;;;;;;;;;5053271;28;20200;-53
2022/10/07 03:51:34;;;;;;;1.00;0.80;;;;;;;;;;5049120;28;20277;-53
2022/10/07 03:54:01;;;;;;;0.60;0.60;;;;;;;;;;5042828;28;20305;-52
2022/10/07 03:56:27;;;;;;;0.80;0.77;;;;;;;;;;5046840;28;20350;-51
2022/10/07 03:58:54;;;;;;;0.97;0.80;;;;;;;;;;5042403;28;20230;-55
2022/10/07 04:01:20;;;;;;;1.67;0.83;;;;;;;;;;5051981;28;20309;-51
2022/10/07 04:03:47;;;;;;;1.20;0.80;;;;;;;;;;5050364;28;20321;-50
2022/10/07 04:06:13;;;;;;;0.80;0.70;;;;;;;;;;5047074;28;20223;-52
2022/10/07 04:08:40;;;;;;;0.93;0.80;;;;;;;;;;5046334;28;20287;-51
2022/10/07 04:11:06;;;;;;;0.70;0.60;;;;;;;;;;5041887;28;20199;-51
2022/10/07 04:13:32;;;;;;;1.13;0.80;;;;;;;;;;5044457;28;20309;-54
2022/10/07 04:16:07;;;;;;;1.00;0.80;;;;;;;;;;5041302;28;20217;-53
2022/10/07 04:18:34;;;;;;;0.73;0.70;;;;;;;;;;5047524;28;20200;-52
2022/10/07 04:21:01;;;;;;;0.90;0.80;;;;;;;;;;5046142;28;20306;-52
2022/10/07 04:23:27;;;;;;;0.80;0.70;;;;;;;;;;5038313;28;20254;-53
2022/10/07 04:25:53;;;;;;;1.17;0.80;;;;;;;;;;5048896;28;20249;-52
2022/10/07 04:28:22;;;;;;;1.43;0.70;;;;;;;;;;5048251;28;20218;-53
2022/10/07 04:30:52;;;;;;;1.43;0.90;;;;;;;;;;5045893;28;20202;-52
2022/10/07 04:33:20;;;;;;;1.07;0.80;;;;;;;;;;5047889;28;20570;-53
2022/10/07 04:35:48;;;;;;;1.80;1.20;;;;;;;;;;5050316;28;20627;-52
2022/10/07 04:38:16;;;;;;;1.20;1.10;;;;;;;;;;5055298;28;20293;-52
2022/10/07 04:40:46;;;;;;;1.13;0.87;;;;;;;;;;5046777;28;20195;-49
2022/10/07 04:43:18;;;;;;;1.57;0.80;;;;;;;;;;5043308;28;20301;-51
2022/10/07 04:45:45;;;;;;;0.73;0.60;;;;;;;;;;5046816;28;20237;-50
2022/10/07 04:48:12;;;;;;;2.80;1.00;;;;;;;;;;5043453;28;20227;-52
2022/10/07 04:50:38;;;;;;;1.37;0.97;;;;;;;;;;5040469;28;20231;-54
2022/10/07 04:53:06;;;;;;;1.00;0.80;;;;;;;;;;5046444;28;20254;-49
2022/10/07 04:55:40;;;;;;;2.67;1.30;;;;;;;;;;5046845;28;20206;-52
2022/10/07 04:58:07;;;;;;;0.83;0.80;;;;;;;;;;5047427;28;21467;-53
2022/10/07 05:00:34;;;;;;;2.50;1.00;;;;;;;;;;5043833;28;20227;-50
2022/10/07 05:03:01;;;;;;;2.13;0.90;;;;;;;;;;5045196;28;20223;-51
2022/10/07 05:05:27;;;;;;;1.17;0.97;;;;;;;;;;5040479;28;20229;-54
2022/10/07 05:07:54;;;;;;;0.70;0.60;;;;;;;;;;5045839;28;20730;-50
2022/10/07 05:10:20;;;;;;;2.40;0.97;;;;;;;;;;5044537;28;20242;-53
2022/10/07 05:12:47;;;;;;;4.03;2.30;;;;;;;;;;5040452;28;20301;-51
2022/10/07 05:15:19;;;;;;;5.00;2.43;;;;;;;;;;5047475;28;20209;-52
2022/10/07 05:17:45;;;;;;;7.10;2.60;;;;;;;;;;5039732;28;20237;-52
2022/10/07 05:20:12;;;;;;;7.57;2.70;;;;;;;;;;5041506;28;20199;-52
2022/10/07 05:22:38;;;;;;;5.37;2.57;;;;;;;;;;5047015;28;20258;-50
2022/10/07 05:25:05;;;;;;;5.77;2.47;;;;;;;;;;5043760;28;20286;-54
2022/10/07 05:27:31;;;;;;;3.47;2.00;;;;;;;;;;5037779;28;20268;-54
2022/10/07 05:29:58;;;;;;;3.07;1.87;;;;;;;;;;5039455;28;20683;-52
2022/10/07 05:32:24;;;;;;;4.10;2.07;;;;;;;;;;5036361;28;20665;-54
2022/10/07 05:34:51;;;;;;;5.37;2.10;;;;;;;;;;5042559;28;20272;-57
2022/10/07 05:37:17;;;;;;;3.10;2.10;;;;;;;;;;5038393;28;20231;-56
2022/10/07 05:39:44;;;;;;;3.73;2.07;;;;;;;;;;5038362;28;20226;-52
2022/10/07 05:42:12;;;;;;;5.07;2.17;;;;;;;;;;5047266;28;20301;-52
2022/10/07 05:44:38;;;;;;;4.67;2.03;;;;;;;;;;5045691;28;20302;-52
2022/10/07 05:47:05;;;;;;;3.47;1.83;;;;;;;;;;5046194;28;20230;-50
2022/10/07 05:49:31;;;;;;;4.30;2.07;;;;;;;;;;5041496;28;20285;-54
2022/10/07 05:51:57;;;;;;;6.17;2.40;;;;;;;;;;5045486;28;20286;-55
2022/10/07 05:54:24;;;;;;;4.07;1.93;;;;;;;;;;5040130;28;20253;-55
2022/10/07 05:56:50;;;;;;;3.67;1.80;;;;;;;;;;5040716;28;20226;-53
2022/10/07 05:59:16;;;;;;;4.47;1.80;;;;;;;;;;5038012;28;20226;-53
2022/10/07 06:01:43;;;;;;;3.17;2.07;;;;;;;;;;5040831;28;20316;-51
2022/10/07 06:04:10;;;;;;;2.07;1.57;;;;;;;;;;5033002;28;20706;-58
2022/10/07 06:06:37;;;;;;;4.10;1.97;;;;;;;;;;5054543;28;20234;-51
2022/10/07 06:14:33;;;;;;;5.73;2.57;;;;;;;;;;5044166;28;20765;-60
2022/10/07 06:17:00;;;;;;;3.40;1.70;;;;;;;;;;5035158;28;20801;-60
2022/10/07 06:19:26;;;;;;;3.97;1.80;;;;;;;;;;5044453;28;20198;-61
2022/10/07 06:21:52;;;;;;;4.30;2.03;;;;;;;;;;5039747;28;20229;-60
2022/10/07 06:24:19;;;;;;;4.87;1.93;;;;;;;;;;5044420;28;20250;-60
2022/10/07 06:26:45;;;;;;;2.63;1.77;;;;;;;;;;5048180;28;20211;-60
2022/10/07 06:29:12;;;;;;;2.37;1.50;;;;;;;;;;5039237;28;20281;-61
2022/10/07 06:31:38;;;;;;;2.67;1.67;;;;;;;;;;5040252;28;20252;-62
2022/10/07 06:34:04;;;;;;;5.47;1.90;;;;;;;;;;5042617;28;20264;-62
2022/10/07 06:36:31;;;;;;;2.23;1.60;;;;;;;;;;5041977;28;20294;-60
2022/10/07 06:38:57;;;;;;;4.10;1.83;;;;;;;;;;5039943;28;20246;-62
2022/10/07 06:41:23;;;;;;;2.67;1.77;;;;;;;;;;5038416;28;20261;-61
2022/10/07 06:43:55;;;;;;;2.85;1.67;;;;;;;;;;5042624;28;20272;-59
2022/10/07 06:46:21;;;;;;;2.80;2.03;;;;;;;;;;5040283;28;20663;-52
2022/10/07 06:48:47;;;;;;;4.00;1.70;;;;;;;;;;5046404;28;20249;-57
2022/10/07 06:51:16;;;;;;;3.30;1.80;;;;;;;;;;5040346;28;20194;-60
2022/10/07 06:53:43;;;;;;;3.75;1.50;;;;;;;;;;5043882;28;20253;-56
2022/10/07 06:56:11;;;;;;;3.03;1.80;;;;;;;;;;5040882;28;20230;-55
2022/10/07 06:58:37;;;;;;;2.17;1.63;;;;;;;;;;5041677;28;20246;-55
2022/10/07 07:01:04;;;;;;;2.88;1.70;;;;;;;;;;5041290;28;20226;-56
2022/10/07 07:03:31;;;;;;;2.45;1.60;;;;;;;;;;5045466;28;20222;-60
2022/10/07 07:05:57;;;;;;;3.92;1.80;;;;;;;;;;5034086;28;20645;-59
2022/10/07 07:08:30;;;;;;;3.08;2.10;;;;;;;;;;5049196;28;20278;-55
2022/10/07 07:11:34;;;;;;;2.67;1.60;;;;;;;;;;5041174;28;20195;-55
2022/10/07 07:13:51;;;;;;;2.95;1.63;;;;;;;;;;5042978;28;20242;-54
2022/10/07 07:16:18;;;;;;;3.92;1.70;;;;;;;;;;5044160;28;20256;-54
2022/10/07 07:18:44;;;;;;;3.35;1.73;;;;;;;;;;5046449;28;20547;-56
2022/10/07 07:21:11;;;;;;;3.00;1.88;;;;;;;;;;5038803;28;20195;-56
2022/10/07 07:23:38;;;;;;;2.45;1.50;;;;;;;;;;5032684;28;20254;-48
2022/10/07 07:26:04;;;;;;;2.67;1.75;;;;;;;;;;5045512;28;20237;-54
2022/10/07 07:28:32;;;;;;;2.60;1.55;;;;;;;;;;5046508;28;20297;-60
2022/10/07 07:30:58;;;;;;;5.55;2.08;;;;;;;;;;5043242;28;20194;-62
2022/10/07 07:33:25;;;;;;;3.47;1.73;;;;;;;;;;5041379;28;20229;-63
2022/10/07 07:35:51;;;;;;;2.10;1.60;;;;;;;;;;5046163;28;20923;-54
2022/10/07 07:38:19;;;;;;;4.78;1.83;;;;;;;;;;5049679;28;20644;-52
2022/10/07 07:40:52;;;;;;;3.40;1.83;;;;;;;;;;5050317;28;20202;-55
2022/10/07 07:43:18;;;;;;;2.50;1.55;;;;;;;;;;5049832;28;20299;-55
2022/10/07 07:45:45;;;;;;;4.07;2.00;;;;;;;;;;5051076;28;20199;-54
2022/10/07 07:48:12;;;;;;;2.95;1.52;;;;;;;;;;5049580;28;20199;-56
2022/10/07 07:50:39;;;;;;;4.80;1.70;;;;;;;;;;5038625;28;21016;-55
2022/10/07 07:53:05;;;;;;;2.03;1.42;;;;;;;;;;5040916;28;20302;-55
2022/10/07 07:55:32;;;;;;;3.22;1.83;;;;;;;;;;5033548;28;20278;-62
2022/10/07 07:57:58;;;;;;;2.67;1.50;;;;;;;;;;5042171;28;20342;-63
2022/10/07 08:00:24;;;;;;;3.75;1.77;;;;;;;;;;5035125;28;20241;-63
2022/10/07 08:02:52;;;;;;;3.33;1.80;;;;;;;;;;5042781;28;20532;-62
2022/10/07 08:05:19;;;;;;;3.85;1.70;;;;;;;;;;5048857;28;20567;-60
2022/10/07 08:07:51;;;;;;;2.45;1.55;;;;;;;;;;5046248;28;20205;-61
2022/10/07 08:10:17;;;;;;;2.13;1.58;;;;;;;;;;5039365;28;20229;-62
2022/10/07 08:12:43;;;;;;;3.58;1.80;;;;;;;;;;5035545;28;20242;-62
2022/10/07 08:15:10;;;;;;;2.53;1.60;;;;;;;;;;5049457;28;20249;-65
2022/10/07 08:17:36;;;;;;;2.17;1.52;;;;;;;;;;5038856;28;20233;-68
2022/10/07 08:20:02;;;;;;;3.55;1.88;;;;;;;;;;5048560;28;20227;-63
2022/10/07 08:22:29;;;;;;;2.53;1.70;;;;;;;;;;5039830;28;20437;-64
2022/10/07 08:24:58;;;;;;;2.95;1.80;;;;;;;;;;5038215;28;20651;-59
2022/10/07 08:27:25;;;;;;;4.20;1.80;;;;;;;;;;5044227;28;20207;-60
2022/10/07 08:29:52;;;;;;;2.75;1.67;;;;;;;;;;5049566;28;20269;-58
2022/10/07 08:32:18;;;;;;;1.60;1.50;;;;;;;;;;5048056;28;20298;-60
2022/10/07 08:34:44;;;;;;;2.10;1.67;;;;;;;;;;5033355;28;20668;-60
2022/10/07 08:37:10;;;;;;;2.92;1.50;;;;;;;;;;5035824;28;20323;-60
2022/10/07 08:39:37;;;;;;;1.88;1.35;;;;;;;;;;5043278;28;20671;-60
2022/10/07 08:42:15;;;;;;;2.70;1.60;;;;;;;;;;5039127;28;20247;-60
2022/10/07 08:44:47;;;;;;;3.92;1.67;;;;;;;;;;5052914;28;20241;-60
2022/10/07 08:47:29;;;;;;;2.10;1.40;;;;;;;;;;5038637;28;20199;-60
2022/10/07 08:50:15;;;;;;;2.05;1.50;;;;;;;;;;5044763;28;20256;-60
2022/10/07 08:53:03;;;;;;;2.10;1.30;;;;;;;;;;5040088;28;20647;-57
2022/10/07 08:55:39;;;;;;;2.45;1.63;;;;;;;;;;5041323;28;20238;-60
2022/10/07 08:58:28;;;;;;;2.20;1.30;;;;;;;;;;5040843;28;20290;-59
2022/10/07 09:01:00;;;;;;;2.22;1.50;;;;;;;;;;5039995;28;20226;-58
2022/10/07 09:04:01;;;;;;;2.65;1.48;;;;;;;;;;5042370;28;20254;-59
2022/10/07 09:06:31;;;;;;;2.50;1.80;;;;;;;;;;5041861;28;20877;-59
2022/10/07 09:09:03;;;;;;;1.50;1.35;;;;;;;;;;5035583;28;20237;-59
2022/10/07 09:11:31;;;;;;;2.10;1.48;;;;;;;;;;5039946;28;20229;-60
2022/10/07 09:14:10;;;;;;;2.38;1.58;;;;;;;;;;5041637;28;20218;-58
2022/10/07 09:16:42;;;;;;;1.95;1.42;;;;;;;;;;5042753;28;20226;-59
2022/10/07 09:19:17;;;;;;;2.28;1.42;;;;;;;;;;5029827;28;21018;-59
2022/10/07 09:21:57;;;;;;;2.50;1.50;;;;;;;;;;5041758;28;20567;-59
2022/10/07 09:24:27;;;;;;;2.17;1.58;;;;;;;;;;5037661;28;20238;-59
2022/10/07 09:26:57;;;;;;;2.13;1.35;;;;;;;;;;5029533;28;20319;-61
2022/10/07 09:29:28;;;;;;;2.17;1.38;;;;;;;;;;5035251;28;20219;-61
2022/10/07 09:31:56;;;;;;;2.92;1.73;;;;;;;;;;5031500;28;20458;-62
2022/10/07 09:34:26;;;;;;;2.53;1.60;;;;;;;;;;5028129;28;20245;-59
2022/10/07 09:37:11;;;;;;;2.08;1.58;;;;;;;;;;5034144;28;20195;-60
2022/10/07 09:39:39;;;;;;;2.95;1.40;;;;;;;;;;5040773;28;20238;-61
2022/10/07 09:42:07;;;;;;;2.60;1.70;;;;;;;;;;5040392;28;20227;-60
2022/10/07 09:44:34;;;;;;;2.90;1.88;;;;;;;;;;5040972;28;20306;-60
2022/10/07 09:47:15;;;;;;;2.95;1.75;;;;;;;;;;5027874;28;20253;-60
2022/10/07 09:49:44;;;;;;;2.33;1.50;;;;;;;;;;5041018;28;20195;-59
2022/10/07 09:52:16;;;;;;;2.85;1.67;;;;;;;;;;5041329;28;20252;-59
2022/10/07 09:54:45;;;;;;;3.97;1.70;;;;;;;;;;5035115;28;20241;-61
2022/10/07 09:57:31;;;;;;;2.10;1.48;;;;;;;;;;5042088;28;20290;-60
2022/10/07 10:00:31;;;;;;;3.85;1.70;;;;;;;;;;5038837;28;20202;-60
2022/10/07 10:03:05;;;;;;;3.50;1.42;;;;;;;;;;5038229;28;20261;-60
2022/10/07 10:05:34;;;;;;;2.50;1.58;;;;;;;;;;5036706;28;20198;-60
2022/10/07 10:08:05;;;;;;;2.38;1.55;;;;;;;;;;5039622;28;20239;-60
2022/10/07 10:10:35;;;;;;;3.90;1.48;;;;;;;;;;5037423;28;20297;-63
2022/10/07 10:13:04;;;;;;;1.95;1.52;;;;;;;;;;5055117;28;20246;-63
2022/10/07 10:15:41;;;;;;;2.65;1.40;;;;;;;;;;5038156;28;20661;-62
2022/10/07 10:18:30;;;;;;;2.33;1.65;;;;;;;;;;5046102;28;20222;-63
2022/10/07 10:21:29;;;;;;;2.65;1.52;;;;;;;;;;5030831;28;20229;-63
2022/10/07 10:24:09;;;;;;;2.88;1.50;;;;;;;;;;5024188;28;20231;-63
2022/10/07 10:26:55;;;;;;;2.72;1.63;;;;;;;;;;5033712;28;20742;-62
2022/10/07 10:29:36;;;;;;;2.78;1.63;;;;;;;;;;5042822;28;20198;-61
2022/10/07 10:32:26;;;;;;;1.73;1.52;;;;;;;;;;5043494;28;20238;-61
2022/10/07 10:35:13;;;;;;;2.15;1.55;;;;;;;;;;5040945;28;20237;-53
2022/10/07 10:37:39;;;;;;;3.10;1.67;;;;;;;;;;5036017;28;20264;-52
2022/10/07 10:40:37;;;;;;;3.17;1.83;;;;;;;;;;5035736;28;20237;-54
2022/10/07 10:43:19;;;;;;;4.53;1.88;;;;;;;;;;5039140;28;20250;-53
2022/10/07 10:46:08;;;;;;;3.25;2.00;;;;;;;;;;5039748;28;20242;-52
2022/10/07 10:48:53;;;;;;;3.97;1.85;;;;;;;;;;5036172;28;20424;-52
2022/10/07 10:51:47;;;;;;;2.58;1.73;;;;;;;;;;5037042;28;20276;-52
2022/10/07 10:54:23;;;;;;;4.35;1.85;;;;;;;;;;5031679;28;20301;-50
2022/10/07 10:56:54;;;;;;;4.80;2.15;;;;;;;;;;5048136;28;20255;-52
2022/10/07 10:59:36;;;;;;;3.28;1.98;;;;;;;;;;5044861;28;20720;-53
2022/10/07 11:02:37;;;;;;;3.17;1.80;;;;;;;;;;5035570;28;20817;-50
2022/10/07 11:05:11;;;;;;;2.30;1.83;;;;;;;;;;5042189;28;20285;-53
2022/10/07 11:07:47;;;;;;;3.00;1.90;;;;;;;;;;5045211;28;20238;-50
2022/10/07 11:10:23;;;;;;;4.32;2.28;;;;;;;;;;5047844;28;20290;-51
2022/10/07 11:12:53;;;;;;;2.35;1.70;;;;;;;;;;5048960;28;20697;-54
2022/10/07 11:15:26;;;;;;;4.10;2.03;;;;;;;;;;5043398;28;20233;-52
2022/10/07 11:17:55;;;;;;;3.25;1.83;;;;;;;;;;5043124;28;20222;-60
2022/10/07 11:20:41;;;;;;;4.32;2.38;;;;;;;;;;5044051;28;20900;-61
2022/10/07 11:23:24;;;;;;;5.70;2.10;;;;;;;;;;5035499;28;20230;-60
2022/10/07 11:25:59;;;;;;;4.72;2.10;;;;;;;;;;5045471;28;20235;-59
2022/10/07 11:28:26;;;;;;;5.40;2.15;;;;;;;;;;5039395;28;20618;-60
2022/10/07 11:31:07;;;;;;;5.13;2.20;;;;;;;;;;5039202;28;20258;-60
2022/10/07 11:33:45;;;;;;;5.28;2.22;;;;;;;;;;5043439;28;20214;-60
2022/10/07 11:36:18;;;;;;;3.47;2.00;;;;;;;;;;5051725;28;20194;-58
2022/10/07 11:38:45;;;;;;;3.33;2.00;;;;;;;;;;5046107;28;20225;-59
2022/10/07 11:41:27;;;;;;;2.53;1.90;;;;;;;;;;5042576;28;20240;-58
2022/10/07 11:43:56;;;;;;;2.95;2.10;;;;;;;;;;5024784;28;20218;-59
2022/10/07 11:46:30;;;;;;;4.13;2.15;;;;;;;;;;5038898;28;20272;-60
2022/10/07 11:49:18;;;;;;;3.42;1.90;;;;;;;;;;5044324;28;20563;-60
2022/10/07 11:52:10;;;;;;;3.40;2.10;;;;;;;;;;5038578;28;20291;-58
2022/10/07 11:54:41;;;;;;;4.55;1.90;;;;;;;;;;5046429;28;20191;-59
2022/10/07 11:57:19;;;;;;;3.05;1.88;;;;;;;;;;5023198;28;20276;-60
2022/10/07 12:00:24;;;;;;;3.35;1.90;;;;;;;;;;5042767;28;20294;-63
2022/10/07 12:02:51;;;;;;;3.88;2.20;;;;;;;;;;5041974;28;20253;-59
2022/10/07 12:05:33;;;;;;;3.20;2.00;;;;;;;;;;5041869;28;20223;-59
2022/10/07 12:08:34;;;;;;;3.58;2.08;;;;;;;;;;5040058;28;20249;-57
2022/10/07 12:11:15;;;;;;;3.88;1.98;;;;;;;;;;5046371;28;20226;-57
2022/10/07 12:13:50;;;;;;;4.25;2.20;;;;;;;;;;5041400;28;20777;-49
2022/10/07 12:16:22;;;;;;;3.22;1.80;;;;;;;;;;5034097;28;20222;-50
2022/10/07 12:19:09;;;;;;;3.47;1.98;;;;;;;;;;5038417;28;20245;-47
2022/10/07 12:22:03;;;;;;;2.97;2.00;;;;;;;;;;5040424;28;20733;-60
2022/10/07 12:24:31;;;;;;;6.05;1.90;;;;;;;;;;5039219;28;20322;-59
2022/10/07 12:27:15;;;;;;;5.22;2.00;;;;;;;;;;5053898;28;20640;-60
2022/10/07 12:29:48;;;;;;;3.00;2.00;;;;;;;;;;5029355;28;20301;-49
2022/10/07 12:32:45;;;;;;;4.22;1.80;;;;;;;;;;5035490;28;20214;-62
2022/10/07 12:35:33;;;;;;;6.18;1.95;;;;;;;;;;5060368;28;20210;-52
2022/10/07 12:38:24;;;;;;;4.80;2.10;;;;;;;;;;5049373;28;20286;-49
2022/10/07 12:41:02;;;;;;;3.72;1.60;;;;;;;;;;5047080;28;20304;-52
2022/10/07 12:43:36;;;;;;;4.10;1.83;;;;;;;;;;5041734;28;20223;-51
2022/10/07 12:46:05;;;;;;;3.05;1.77;;;;;;;;;;5045739;28;20215;-53
2022/10/07 12:48:38;;;;;;;3.90;1.80;;;;;;;;;;5047846;28;20203;-48
2022/10/07 12:51:18;;;;;;;4.15;2.10;;;;;;;;;;5045401;28;20256;-53
2022/10/07 12:53:46;;;;;;;3.60;2.03;;;;;;;;;;5047287;28;20310;-49
2022/10/07 12:56:27;;;;;;;3.00;1.85;;;;;;;;;;5050680;28;20614;-48
2022/10/07 13:02:16;;;;;;;2.45;1.70;;;;;;;;;;5038726;28;20222;-52
2022/10/07 13:05:14;;;;;;;3.80;1.75;;;;;;;;;;5045545;28;20222;-51
2022/10/07 13:08:00;;;;;;;3.55;1.70;;;;;;;;;;5044203;28;20717;-51
2022/10/07 13:10:59;;;;;;;2.08;1.45;;;;;;;;;;5037826;28;20223;-53
2022/10/07 13:13:47;;;;;;;3.42;1.85;;;;;;;;;;5039800;28;20234;-53
2022/10/07 13:16:47;;;;;;;3.83;1.90;;;;;;;;;;5047530;28;20246;-50
2022/10/07 13:19:22;;;;;;;3.80;1.60;;;;;;;;;;5043218;28;20588;-50
2022/10/07 13:22:11;;;;;;;4.60;2.65;;;;;;;;;;5045648;28;20674;-48
2022/10/07 13:24:39;;;;;;;2.38;1.75;;;;;;;;;;5044828;28;20305;-52
2022/10/07 13:27:09;;;;;;;4.05;1.77;;;;;;;;;;5020911;28;20289;-51
2022/10/07 13:29:37;;;;;;;3.35;1.70;;;;;;;;;;5043293;28;20237;-52
2022/10/07 13:32:06;;;;;;;4.63;1.80;;;;;;;;;;5027307;28;20290;-52
2022/10/07 13:34:33;;;;;;;4.72;2.00;;;;;;;;;;5045380;28;20725;-51
2022/10/07 13:37:00;;;;;;;2.72;1.80;;;;;;;;;;5047551;28;20278;-52
2022/10/07 13:39:26;;;;;;;2.60;1.58;;;;;;;;;;5047952;28;20234;-51
2022/10/07 13:41:55;;;;;;;2.80;1.52;;;;;;;;;;5047662;28;20290;-50
2022/10/07 13:44:23;;;;;;;6.07;1.80;;;;;;;;;;5047188;28;20330;-52
2022/10/07 13:47:03;;;;;;;2.80;1.83;;;;;;;;;;5046029;28;20238;-50
2022/10/07 13:49:34;;;;;;;2.28;1.60;;;;;;;;;;5039591;28;20226;-48
2022/10/07 13:52:05;;;;;;;3.13;1.52;;;;;;;;;;5044347;28;20282;-48
2022/10/07 13:54:32;;;;;;;3.60;1.77;;;;;;;;;;5042780;28;20257;-48
2022/10/07 13:57:01;;;;;;;2.72;1.30;;;;;;;;;;5045039;28;20234;-48
2022/10/07 13:59:28;;;;;;;2.83;1.60;;;;;;;;;;5052152;28;20614;-49
2022/10/07 14:01:57;;;;;;;3.50;1.75;;;;;;;;;;5039278;28;20223;-48
2022/10/07 14:04:30;;;;;;;2.60;1.40;;;;;;;;;;5051012;28;20218;-51
2022/10/07 14:07:11;;;;;;;5.53;1.70;;;;;;;;;;5039763;28;20597;-51
2022/10/07 14:09:41;;;;;;;2.40;1.40;;;;;;;;;;5041942;28;20241;-49
2022/10/07 14:12:21;;;;;;;5.13;1.52;;;;;;;;;;5036422;28;20281;-52
2022/10/07 14:14:51;;;;;;;3.25;1.65;;;;;;;;;;5045089;28;20222;-50
2022/10/07 14:17:39;;;;;;;3.60;1.70;;;;;;;;;;5045899;28;20271;-51
2022/10/07 14:20:27;;;;;;;2.33;1.63;;;;;;;;;;5046207;28;20199;-50
2022/10/07 14:22:56;;;;;;;1.98;1.52;;;;;;;;;;5044125;28;20215;-49
2022/10/07 14:25:28;;;;;;;3.47;1.48;;;;;;;;;;5043078;28;20702;-48
2022/10/07 14:28:15;;;;;;;2.78;1.42;;;;;;;;;;5032134;28;20252;-62
2022/10/07 14:36:15;;;;;;;2.00;1.40;;;;;;;;;;5042999;28;20226;-49
2022/10/07 14:38:45;;;;;;;3.13;1.63;;;;;;;;;;5032862;28;20275;-52
2022/10/07 14:41:12;;;;;;;5.03;1.77;;;;;;;;;;5039224;28;20297;-50
2022/10/07 14:43:40;;;;;;;2.42;1.60;;;;;;;;;;5049734;28;20317;-50
2022/10/07 14:46:15;;;;;;;2.55;1.40;;;;;;;;;;5047780;28;20230;-53
2022/10/07 14:48:42;;;;;;;2.38;1.45;;;;;;;;;;5048637;28;20202;-48
2022/10/07 14:51:09;;;;;;;4.68;1.80;;;;;;;;;;5049682;28;20708;-49
2022/10/07 14:53:36;;;;;;;4.22;1.40;;;;;;;;;;5044616;28;20632;-47
2022/10/07 14:56:03;;;;;;;3.15;1.50;;;;;;;;;;5046338;28;20222;-47
2022/10/07 14:58:30;;;;;;;3.35;1.60;;;;;;;;;;5037831;28;20293;-48
2022/10/07 15:00:56;;;;;;;3.70;1.40;;;;;;;;;;5040469;28;20565;-48
2022/10/07 15:03:23;;;;;;;7.57;1.60;;;;;;;;;;5049560;28;20249;-47
2022/10/07 15:05:49;;;;;;;3.50;1.42;;;;;;;;;;5052460;28;20234;-48
2022/10/07 15:08:16;;;;;;;4.40;1.60;;;;;;;;;;5046908;28;20222;-47
2022/10/07 15:10:42;;;;;;;4.10;1.70;;;;;;;;;;5049886;28;20226;-47
2022/10/07 15:13:10;;;;;;;5.88;1.45;;;;;;;;;;5039366;28;20746;-47
2022/10/07 15:15:40;;;;;;;4.07;1.70;;;;;;;;;;5048328;28;20202;-52
2022/10/07 15:18:07;;;;;;;3.72;1.50;;;;;;;;;;5038451;28;20207;-48
2022/10/07 15:20:34;;;;;;;4.32;1.50;;;;;;;;;;5048886;28;20230;-48
2022/10/07 15:23:01;;;;;;;3.25;1.55;;;;;;;;;;5050922;28;20305;-47
2022/10/07 15:25:30;;;;;;;4.50;1.30;;;;;;;;;;5047520;28;20219;-48
2022/10/07 15:27:57;;;;;;;2.95;1.50;;;;;;;;;;5045741;28;20206;-48